createdAt,value
2018-10-01T00:00:56.305Z,14.14
2018-10-01T00:03:24.981Z,14.12
2018-10-01T00:05:53.580Z,14.05
2018-10-01T00:08:22.222Z,14.03
2018-10-01T00:10:50.780Z,14.07
2018-10-01T00:13:19.682Z,14.02
2018-10-01T00:15:48.360Z,14.05
2018-10-01T00:18:16.921Z,14.05
2018-10-01T00:20:50.787Z,14.03
2018-10-01T00:23:20.292Z,14.07
2018-10-01T00:25:49.029Z,14.13
2018-10-01T00:28:17.520Z,14.08
2018-10-01T00:30:45.978Z,14.06
2018-10-01T00:33:14.480Z,14.01
2018-10-01T00:35:42.951Z,14.06
2018-10-01T00:38:11.653Z,14.02
2018-10-01T00:40:40.814Z,14.01
2018-10-01T00:43:09.681Z,13.98
2018-10-01T00:45:38.736Z,13.97
2018-10-01T00:48:07.739Z,13.97
2018-10-01T00:50:36.250Z,13.96
2018-10-01T00:53:05.264Z,13.97
2018-10-01T00:55:34.322Z,13.94
2018-10-01T00:58:02.806Z,13.96
2018-10-01T01:00:31.523Z,13.97
2018-10-01T01:03:00.513Z,13.97
2018-10-01T01:05:29.325Z,13.98
2018-10-01T01:07:57.789Z,14.01
2018-10-01T01:10:26.279Z,13.96
2018-10-01T01:12:54.948Z,13.96
2018-10-01T01:15:23.438Z,13.97
2018-10-01T01:17:52.242Z,13.96
2018-10-01T01:20:21.178Z,13.97
2018-10-01T01:22:50.076Z,13.96
2018-10-01T01:25:18.655Z,13.96
2018-10-01T01:27:47.555Z,13.97
2018-10-01T01:30:16.451Z,13.99
2018-10-01T01:32:45.520Z,14.01
2018-10-01T01:35:14.076Z,14.00
2018-10-01T01:37:42.619Z,14.00
2018-10-01T01:40:11.838Z,13.97
2018-10-01T01:42:40.491Z,13.94
2018-10-01T01:45:09.021Z,13.96
2018-10-01T01:47:37.547Z,13.96
2018-10-01T01:50:06.084Z,13.96
2018-10-01T01:52:34.569Z,13.91
2018-10-01T01:55:03.136Z,13.95
2018-10-01T01:57:31.642Z,13.90
2018-10-01T02:00:00.118Z,13.87
2018-10-01T02:02:28.681Z,13.82
2018-10-01T02:04:57.240Z,13.87
2018-10-01T02:07:25.755Z,13.76
2018-10-01T02:09:54.387Z,13.73
2018-10-01T02:12:22.871Z,13.67
2018-10-01T02:14:51.398Z,13.63
2018-10-01T02:17:19.973Z,13.54
2018-10-01T02:19:48.431Z,13.46
2018-10-01T02:22:16.935Z,13.46
2018-10-01T02:24:45.466Z,13.48
2018-10-01T02:27:13.870Z,13.50
2018-10-01T02:29:42.404Z,13.43
2018-10-01T02:32:10.935Z,13.38
2018-10-01T02:34:39.438Z,13.40
2018-10-01T02:37:08.065Z,13.42
2018-10-01T02:39:36.548Z,13.39
2018-10-01T02:42:05.087Z,13.38
2018-10-01T02:44:33.669Z,13.36
2018-10-01T02:47:02.228Z,13.43
2018-10-01T02:49:30.710Z,13.39
2018-10-01T02:52:04.453Z,13.34
2018-10-01T02:54:33.835Z,13.34
2018-10-01T02:57:03.057Z,13.36
2018-10-01T02:59:31.512Z,13.33
2018-10-01T03:02:00.014Z,13.39
2018-10-01T03:04:28.809Z,13.41
2018-10-01T03:06:57.179Z,13.41
2018-10-01T03:09:25.583Z,13.43
2018-10-01T03:11:54.076Z,13.40
2018-10-01T03:14:22.550Z,13.37
2018-10-01T03:16:50.946Z,13.35
2018-10-01T03:19:19.414Z,13.29
2018-10-01T03:21:47.831Z,13.29
2018-10-01T03:24:16.313Z,13.23
2018-10-01T03:26:44.823Z,13.21
2018-10-01T03:29:13.289Z,13.21
2018-10-01T03:31:41.793Z,13.19
2018-10-01T03:34:10.263Z,13.13
2018-10-01T03:36:38.659Z,13.14
2018-10-01T03:39:09.070Z,13.04
2018-10-01T03:41:37.705Z,13.04
2018-10-01T03:44:06.096Z,13.06
2018-10-01T03:46:34.565Z,13.06
2018-10-01T03:49:02.986Z,13.00
2018-10-01T03:51:31.597Z,13.00
2018-10-01T03:54:00.026Z,12.95
2018-10-01T03:56:28.513Z,12.92
2018-10-01T03:58:57.026Z,12.90
2018-10-01T04:01:25.560Z,12.94
2018-10-01T04:03:53.986Z,13.06
2018-10-01T04:06:22.489Z,13.14
2018-10-01T04:08:50.917Z,13.14
2018-10-01T04:11:19.322Z,13.15
2018-10-01T04:13:47.757Z,13.15
2018-10-01T04:16:16.195Z,13.15
2018-10-01T04:18:44.721Z,13.13
2018-10-01T04:21:13.111Z,13.13
2018-10-01T04:23:41.581Z,13.10
2018-10-01T04:26:09.994Z,13.01
2018-10-01T04:28:38.420Z,13.04
2018-10-01T04:31:07.343Z,12.95
2018-10-01T04:33:35.733Z,12.95
2018-10-01T04:36:04.125Z,12.93
2018-10-01T04:38:32.542Z,12.93
2018-10-01T04:41:00.878Z,12.95
2018-10-01T04:43:29.369Z,12.94
2018-10-01T04:45:57.773Z,12.92
2018-10-01T04:48:26.208Z,12.94
2018-10-01T04:50:54.798Z,12.92
2018-10-01T04:53:23.219Z,12.91
2018-10-01T04:55:51.643Z,12.86
2018-10-01T04:58:20.141Z,12.86
2018-10-01T05:00:48.553Z,12.89
2018-10-01T05:03:16.964Z,12.86
2018-10-01T05:05:45.393Z,12.87
2018-10-01T05:08:13.734Z,12.88
2018-10-01T05:10:42.288Z,12.82
2018-10-01T05:13:10.718Z,12.81
2018-10-01T05:15:39.233Z,12.78
2018-10-01T05:18:07.656Z,12.76
2018-10-01T05:20:36.057Z,12.84
2018-10-01T05:23:04.479Z,12.77
2018-10-01T05:25:33.210Z,12.69
2018-10-01T05:28:01.661Z,12.63
2018-10-01T05:30:30.044Z,12.64
2018-10-01T05:32:58.754Z,12.55
2018-10-01T05:35:27.118Z,12.50
2018-10-01T05:37:55.570Z,12.52
2018-10-01T05:40:23.914Z,12.54
2018-10-01T05:42:52.265Z,12.57
2018-10-01T05:45:20.842Z,12.59
2018-10-01T05:47:49.317Z,12.58
2018-10-01T05:50:17.669Z,12.57
2018-10-01T05:52:46.126Z,12.57
2018-10-01T05:55:14.841Z,12.52
2018-10-01T05:57:43.324Z,12.52
2018-10-01T06:00:12.415Z,12.58
2018-10-01T06:02:40.897Z,12.56
2018-10-01T06:05:09.548Z,12.59
2018-10-01T06:07:37.917Z,12.57
2018-10-01T06:10:06.298Z,12.58
2018-10-01T06:12:34.763Z,12.55
2018-10-01T06:15:03.217Z,12.48
2018-10-01T06:17:31.959Z,12.43
2018-10-01T06:20:00.406Z,12.45
2018-10-01T06:22:28.809Z,12.43
2018-10-01T06:24:57.279Z,12.47
2018-10-01T06:27:25.860Z,12.47
2018-10-01T06:29:54.440Z,12.50
2018-10-01T06:32:22.819Z,12.52
2018-10-01T06:34:51.235Z,12.56
2018-10-01T06:37:19.615Z,12.62
2018-10-01T06:39:48.129Z,12.62
2018-10-01T06:42:16.633Z,12.65
2018-10-01T06:44:45.048Z,12.66
2018-10-01T06:47:13.459Z,12.66
2018-10-01T06:49:42.032Z,12.68
2018-10-01T06:52:10.536Z,12.67
2018-10-01T06:54:38.948Z,12.58
2018-10-01T06:57:07.363Z,12.58
2018-10-01T06:59:35.744Z,12.56
2018-10-01T07:02:04.317Z,12.56
2018-10-01T07:04:32.687Z,12.58
2018-10-01T07:07:01.243Z,12.62
2018-10-01T07:09:29.919Z,12.60
2018-10-01T07:11:58.341Z,12.61
2018-10-01T07:14:26.895Z,12.61
2018-10-01T07:16:55.702Z,12.69
2018-10-01T07:19:24.468Z,12.73
2018-10-01T07:21:53.036Z,12.74
2018-10-01T07:24:21.468Z,12.67
2018-10-01T07:26:50.098Z,12.72
2018-10-01T07:29:18.633Z,12.73
2018-10-01T07:31:47.262Z,12.72
2018-10-01T07:34:15.905Z,12.66
2018-10-01T07:36:44.542Z,12.74
2018-10-01T07:39:12.980Z,12.68
2018-10-01T07:41:41.332Z,12.67
2018-10-01T07:44:09.811Z,12.71
2018-10-01T07:46:38.290Z,12.71
2018-10-01T07:49:06.651Z,12.70
2018-10-01T07:51:35.055Z,12.68
2018-10-01T07:54:03.487Z,12.69
2018-10-01T07:56:32.122Z,12.61
2018-10-01T07:59:00.597Z,12.52
2018-10-01T08:01:29.194Z,12.51
2018-10-01T08:03:57.618Z,12.66
2018-10-01T08:06:26.140Z,12.77
2018-10-01T08:08:54.601Z,12.89
2018-10-01T08:11:23.171Z,12.99
2018-10-01T08:13:51.704Z,13.22
2018-10-01T08:16:20.169Z,13.37
2018-10-01T08:18:48.652Z,13.40
2018-10-01T08:21:17.139Z,13.45
2018-10-01T08:23:45.543Z,13.46
2018-10-01T08:26:14.011Z,13.35
2018-10-01T08:28:42.325Z,13.31
2018-10-01T08:31:10.786Z,13.33
2018-10-01T08:33:39.308Z,13.30
2018-10-01T08:36:08.024Z,13.35
2018-10-01T08:38:36.687Z,13.50
2018-10-01T08:41:05.214Z,13.58
2018-10-01T08:43:33.703Z,13.74
2018-10-01T08:46:02.190Z,13.73
2018-10-01T08:48:31.558Z,13.76
2018-10-01T08:51:07.041Z,13.77
2018-10-01T08:53:39.729Z,13.65
2018-10-01T08:56:09.603Z,13.62
2018-10-01T08:58:38.261Z,13.61
2018-10-01T09:01:07.038Z,13.57
2018-10-01T09:03:35.699Z,13.51
2018-10-01T09:06:04.232Z,13.52
2018-10-01T09:08:32.777Z,13.46
2018-10-01T09:11:01.294Z,13.45
2018-10-01T09:13:29.731Z,13.47
2018-10-01T09:15:58.113Z,13.51
2018-10-01T09:18:26.618Z,13.51
2018-10-01T09:20:55.036Z,13.47
2018-10-01T09:23:23.465Z,13.40
2018-10-01T09:25:52.660Z,13.33
2018-10-01T09:28:21.066Z,13.22
2018-10-01T09:30:49.560Z,13.17
2018-10-01T09:33:18.014Z,13.08
2018-10-01T09:35:46.384Z,13.06
2018-10-01T09:38:14.939Z,13.03
2018-10-01T09:40:43.470Z,13.08
2018-10-01T09:43:12.024Z,13.09
2018-10-01T09:45:40.440Z,13.05
2018-10-01T09:48:08.919Z,13.03
2018-10-01T09:50:37.356Z,13.00
2018-10-01T09:53:05.853Z,13.00
2018-10-01T09:55:34.424Z,13.09
2018-10-01T09:58:03.033Z,13.18
2018-10-01T10:00:40.494Z,13.35
2018-10-01T10:03:09.644Z,13.39
2018-10-01T10:05:38.342Z,13.50
2018-10-01T10:08:06.770Z,13.72
2018-10-01T10:10:35.271Z,13.98
2018-10-01T10:13:03.798Z,14.15
2018-10-01T10:15:32.319Z,14.44
2018-10-01T10:18:00.784Z,14.74
2018-10-01T10:20:29.210Z,15.07
2018-10-01T10:22:57.640Z,15.41
2018-10-01T10:25:26.050Z,15.36
2018-10-01T10:27:54.443Z,15.43
2018-10-01T10:30:23.125Z,15.54
2018-10-01T10:32:51.473Z,15.51
2018-10-01T10:35:19.859Z,15.38
2018-10-01T10:37:48.252Z,15.10
2018-10-01T10:40:16.711Z,14.84
2018-10-01T10:42:45.128Z,14.72
2018-10-01T10:45:13.621Z,14.76
2018-10-01T10:47:42.073Z,14.71
2018-10-01T10:50:10.905Z,14.52
2018-10-01T10:52:39.455Z,14.18
2018-10-01T10:55:08.256Z,13.76
2018-10-01T10:57:36.675Z,13.46
2018-10-01T11:00:05.241Z,13.14
2018-10-01T11:02:33.695Z,12.98
2018-10-01T11:05:02.275Z,12.84
2018-10-01T11:07:30.746Z,12.67
2018-10-01T11:09:59.168Z,12.66
2018-10-01T11:12:27.604Z,12.51
2018-10-01T11:14:56.464Z,12.38
2018-10-01T11:17:24.739Z,12.19
2018-10-01T11:19:53.386Z,12.14
2018-10-01T11:22:21.763Z,12.13
2018-10-01T11:24:50.284Z,12.20
2018-10-01T11:27:18.752Z,12.19
2018-10-01T11:29:47.143Z,12.14
2018-10-01T11:32:15.662Z,12.16
2018-10-01T11:34:44.163Z,12.13
2018-10-01T11:37:12.511Z,12.15
2018-10-01T11:39:41.025Z,12.04
2018-10-01T11:42:09.501Z,12.06
2018-10-01T11:44:38.085Z,12.05
2018-10-01T11:47:06.552Z,12.13
2018-10-01T11:49:35.043Z,12.15
2018-10-01T11:52:03.462Z,12.14
2018-10-01T11:54:32.083Z,12.17
2018-10-01T11:57:00.863Z,12.15
2018-10-01T11:59:29.074Z,12.17
2018-10-01T12:01:57.726Z,12.16
2018-10-01T12:04:26.187Z,12.22
2018-10-01T12:06:54.565Z,12.22
2018-10-01T12:09:23.009Z,12.19
2018-10-01T12:11:51.451Z,12.21
2018-10-01T12:14:26.480Z,12.26
2018-10-01T12:16:54.954Z,12.27
2018-10-01T12:19:23.476Z,12.28
2018-10-01T12:21:52.418Z,12.31
2018-10-01T12:24:20.781Z,12.31
2018-10-01T12:26:49.211Z,12.33
2018-10-01T12:29:17.670Z,12.37
2018-10-01T12:31:46.096Z,12.33
2018-10-01T12:34:14.544Z,12.42
2018-10-01T12:36:42.901Z,12.45
2018-10-01T12:39:11.416Z,12.46
2018-10-01T12:41:39.826Z,12.49
2018-10-01T12:44:08.294Z,12.55
2018-10-01T12:46:36.832Z,12.61
2018-10-01T12:49:05.252Z,12.67
2018-10-01T12:51:33.798Z,12.68
2018-10-01T12:54:03.149Z,12.79
2018-10-01T12:56:31.474Z,12.82
2018-10-01T12:59:00.057Z,12.82
2018-10-01T13:01:28.979Z,12.88
2018-10-01T13:03:58.337Z,12.92
2018-10-01T13:06:26.982Z,12.97
2018-10-01T13:08:55.630Z,13.03
2018-10-01T13:11:24.245Z,13.15
2018-10-01T13:13:52.642Z,13.21
2018-10-01T13:16:21.089Z,13.20
2018-10-01T13:18:49.483Z,13.16
2018-10-01T13:21:17.906Z,13.18
2018-10-01T13:23:46.300Z,13.18
2018-10-01T13:26:14.764Z,13.17
2018-10-01T13:28:43.161Z,13.16
2018-10-01T13:31:11.749Z,13.16
2018-10-01T13:33:40.219Z,13.17
2018-10-01T13:36:08.878Z,13.17
2018-10-01T13:38:37.308Z,13.14
2018-10-01T13:41:05.734Z,13.12
2018-10-01T13:43:34.239Z,13.10
2018-10-01T13:46:02.761Z,13.04
2018-10-01T13:48:31.220Z,13.05
2018-10-01T13:50:59.564Z,13.06
2018-10-01T13:53:27.949Z,13.04
2018-10-01T13:55:56.345Z,13.07
2018-10-01T13:58:24.917Z,13.12
2018-10-01T14:00:53.557Z,13.07
2018-10-01T14:03:22.052Z,13.12
2018-10-01T14:05:50.483Z,13.06
2018-10-01T14:08:18.891Z,13.06
2018-10-01T14:10:47.352Z,13.10
2018-10-01T14:13:15.789Z,13.13
2018-10-01T14:15:44.287Z,13.16
2018-10-01T14:18:12.708Z,13.08
2018-10-01T14:20:41.412Z,12.92
2018-10-01T14:23:09.831Z,12.80
2018-10-01T14:25:38.337Z,12.58
2018-10-01T14:28:06.821Z,12.56
2018-10-01T14:30:35.447Z,12.40
2018-10-01T14:33:03.904Z,12.37
2018-10-01T14:35:32.402Z,12.25
2018-10-01T14:38:00.819Z,12.22
2018-10-01T14:40:29.431Z,12.14
2018-10-01T14:42:57.877Z,12.15
2018-10-01T14:45:26.293Z,12.14
2018-10-01T14:47:54.718Z,12.13
2018-10-01T14:50:24.903Z,12.15
2018-10-01T14:52:54.285Z,12.15
2018-10-01T14:55:22.921Z,12.18
2018-10-01T14:57:51.404Z,12.21
2018-10-01T15:00:19.928Z,12.13
2018-10-01T15:02:48.355Z,12.14
2018-10-01T15:05:16.953Z,12.09
2018-10-01T15:07:45.343Z,12.13
2018-10-01T15:10:13.998Z,12.17
2018-10-01T15:12:42.690Z,12.15
2018-10-01T15:15:11.161Z,12.12
2018-10-01T15:17:39.717Z,12.16
2018-10-01T15:20:08.099Z,12.16
2018-10-01T15:22:36.570Z,12.16
2018-10-01T15:25:05.035Z,12.18
2018-10-01T15:27:33.425Z,12.17
2018-10-01T15:30:01.894Z,12.15
2018-10-01T15:32:30.254Z,12.15
2018-10-01T15:34:58.689Z,12.14
2018-10-01T15:37:27.190Z,12.16
2018-10-01T15:39:55.593Z,12.09
2018-10-01T15:42:24.094Z,12.12
2018-10-01T15:44:52.780Z,12.13
2018-10-01T15:47:21.232Z,12.18
2018-10-01T15:49:50.015Z,12.16
2018-10-01T15:52:18.562Z,12.15
2018-10-01T15:54:47.395Z,12.15
2018-10-01T15:57:15.812Z,12.16
2018-10-01T15:59:44.661Z,12.12
2018-10-01T16:02:13.084Z,12.09
2018-10-01T16:04:41.496Z,12.08
2018-10-01T16:07:09.945Z,12.10
2018-10-01T16:09:38.322Z,12.07
2018-10-01T16:12:06.694Z,12.09
2018-10-01T16:14:35.068Z,12.12
2018-10-01T16:17:03.462Z,12.09
2018-10-01T16:19:31.942Z,12.14
2018-10-01T16:22:00.343Z,12.13
2018-10-01T16:24:28.738Z,12.08
2018-10-01T16:26:57.109Z,12.08
2018-10-01T16:29:25.553Z,12.12
2018-10-01T16:31:54.029Z,12.07
2018-10-01T16:34:22.429Z,11.99
2018-10-01T16:36:50.893Z,12.00
2018-10-01T16:39:19.427Z,11.96
2018-10-01T16:41:47.819Z,11.92
2018-10-01T16:44:16.237Z,11.89
2018-10-01T16:46:45.441Z,11.86
2018-10-01T16:49:13.864Z,11.87
2018-10-01T16:51:42.248Z,11.86
2018-10-01T16:54:10.701Z,11.82
2018-10-01T16:56:39.137Z,11.74
2018-10-01T16:59:07.645Z,11.75
2018-10-01T17:01:36.072Z,11.68
2018-10-01T17:04:04.517Z,11.72
2018-10-01T17:06:34.239Z,11.68
2018-10-01T17:09:05.402Z,11.59
2018-10-01T17:11:33.909Z,11.59
2018-10-01T17:14:02.314Z,11.60
2018-10-01T17:16:30.670Z,11.54
2018-10-01T17:18:59.148Z,11.55
2018-10-01T17:21:27.778Z,11.51
2018-10-01T17:23:56.270Z,11.43
2018-10-01T17:26:25.337Z,11.36
2018-10-01T17:28:53.928Z,11.38
2018-10-01T17:31:22.405Z,11.36
2018-10-01T17:33:50.962Z,11.33
2018-10-01T17:36:19.690Z,11.32
2018-10-01T17:38:48.190Z,11.27
2018-10-01T17:41:16.620Z,11.26
2018-10-01T17:43:45.106Z,11.28
2018-10-01T17:46:13.524Z,11.29
2018-10-01T17:48:42.032Z,11.24
2018-10-01T17:51:10.604Z,11.26
2018-10-01T17:53:41.980Z,11.30
2018-10-01T17:56:10.324Z,11.28
2018-10-01T17:58:38.792Z,11.25
2018-10-01T18:01:07.758Z,11.20
2018-10-01T18:03:36.255Z,11.21
2018-10-01T18:06:04.695Z,11.17
2018-10-01T18:08:33.228Z,11.12
2018-10-01T18:11:01.858Z,11.15
2018-10-01T18:13:30.302Z,11.09
2018-10-01T18:15:58.909Z,11.13
2018-10-01T18:18:27.548Z,11.09
2018-10-01T18:20:56.090Z,11.07
2018-10-01T18:23:24.599Z,11.07
2018-10-01T18:25:53.108Z,11.09
2018-10-01T18:28:21.622Z,11.00
2018-10-01T18:30:50.054Z,10.97
2018-10-01T18:33:18.594Z,10.97
2018-10-01T18:35:47.034Z,10.95
2018-10-01T18:38:15.889Z,10.86
2018-10-01T18:40:44.732Z,10.86
2018-10-01T18:43:13.524Z,10.84
2018-10-01T18:45:42.210Z,10.82
2018-10-01T18:48:10.838Z,10.80
2018-10-01T18:50:39.464Z,10.85
2018-10-01T18:53:08.161Z,10.86
2018-10-01T18:55:36.779Z,10.83
2018-10-01T18:58:05.250Z,10.78
2018-10-01T19:00:33.859Z,10.71
2018-10-01T19:03:02.571Z,10.65
2018-10-01T19:05:31.187Z,10.66
2018-10-01T19:07:59.748Z,10.61
2018-10-01T19:10:28.373Z,10.57
2018-10-01T19:13:02.082Z,10.61
2018-10-01T19:15:33.244Z,10.60
2018-10-01T19:18:03.561Z,10.50
2018-10-01T19:20:32.675Z,10.54
2018-10-01T19:23:01.647Z,10.48
2018-10-01T19:25:30.573Z,10.47
2018-10-01T19:27:59.743Z,10.44
2018-10-01T19:30:28.777Z,10.43
2018-10-01T19:32:57.761Z,10.36
2018-10-01T19:35:26.771Z,10.32
2018-10-01T19:37:55.963Z,10.35
2018-10-01T19:40:25.097Z,10.34
2018-10-01T19:42:54.113Z,10.36
2018-10-01T19:45:23.540Z,10.37
2018-10-01T19:47:52.779Z,10.38
2018-10-01T19:50:21.794Z,10.44
2018-10-01T19:52:51.225Z,10.41
2018-10-01T19:55:20.739Z,10.37
2018-10-01T19:57:49.796Z,10.39
2018-10-01T20:00:19.195Z,10.34
2018-10-01T20:02:48.181Z,10.35
2018-10-01T20:05:17.225Z,10.30
2018-10-01T20:07:46.344Z,10.29
2018-10-01T20:10:15.558Z,10.29
2018-10-01T20:12:44.564Z,10.28
2018-10-01T20:15:13.808Z,10.28
2018-10-01T20:17:43.027Z,10.29
2018-10-01T20:20:12.225Z,10.23
2018-10-01T20:22:41.534Z,10.14
2018-10-01T20:25:10.518Z,10.10
2018-10-01T20:27:39.630Z,10.08
2018-10-01T20:30:09.107Z,10.07
2018-10-01T20:32:37.930Z,10.00
2018-10-01T20:35:06.782Z,9.99
2018-10-01T20:37:35.570Z,9.92
2018-10-01T20:40:04.445Z,9.86
2018-10-01T20:42:33.671Z,9.91
2018-10-01T20:45:02.925Z,9.93
2018-10-01T20:47:31.735Z,9.90
2018-10-01T20:50:00.627Z,9.90
2018-10-01T20:52:29.629Z,9.88
2018-10-01T20:54:58.732Z,9.81
2018-10-01T20:57:27.229Z,9.68
2018-10-01T20:59:55.887Z,9.63
2018-10-01T21:02:24.649Z,9.59
2018-10-01T21:04:53.247Z,9.63
2018-10-01T21:07:21.779Z,9.57
2018-10-01T21:09:50.442Z,9.50
2018-10-01T21:12:19.077Z,9.45
2018-10-01T21:14:47.582Z,9.46
2018-10-01T21:17:16.076Z,9.44
2018-10-01T21:19:44.713Z,9.40
2018-10-01T21:22:14.622Z,9.43
2018-10-01T21:24:43.675Z,9.47
2018-10-01T21:27:29.108Z,9.42
2018-10-01T21:29:57.687Z,9.36
2018-10-01T21:32:26.323Z,9.35
2018-10-01T21:34:54.777Z,9.32
2018-10-01T21:37:23.390Z,9.37
2018-10-01T21:40:02.257Z,9.35
2018-10-01T21:42:30.793Z,9.41
2018-10-01T21:44:59.958Z,9.28
2018-10-01T21:47:29.169Z,9.22
2018-10-01T21:49:57.624Z,9.28
2018-10-01T21:52:27.244Z,9.33
2018-10-01T21:54:56.174Z,9.24
2018-10-01T21:57:24.730Z,9.27
2018-10-01T21:59:53.152Z,9.29
2018-10-01T22:02:21.839Z,9.25
2018-10-01T22:04:50.306Z,9.29
2018-10-01T22:07:19.411Z,9.23
2018-10-01T22:09:49.901Z,9.24
2018-10-01T22:12:18.373Z,9.16
2018-10-01T22:14:46.822Z,9.09
2018-10-01T22:17:15.203Z,9.08
2018-10-01T22:19:43.665Z,9.09
2018-10-01T22:22:12.160Z,9.04
2018-10-01T22:24:40.637Z,8.99
2018-10-01T22:27:09.080Z,8.99
2018-10-01T22:29:37.550Z,9.00
2018-10-01T22:32:06.080Z,8.99
2018-10-01T22:34:34.496Z,8.95
2018-10-01T22:37:02.919Z,9.01
2018-10-01T22:39:31.379Z,8.83
2018-10-01T22:41:59.824Z,8.77
2018-10-01T22:44:28.340Z,8.77
2018-10-01T22:46:56.677Z,8.83
2018-10-01T22:49:25.155Z,8.79
2018-10-01T22:51:53.590Z,8.78
2018-10-01T22:54:21.948Z,8.76
2018-10-01T22:56:50.267Z,8.79
2018-10-01T22:59:19.330Z,8.72
2018-10-01T23:01:47.747Z,8.72
2018-10-01T23:04:16.111Z,8.68
2018-10-01T23:06:44.528Z,8.69
2018-10-01T23:09:12.896Z,8.67
2018-10-01T23:11:41.338Z,8.72
2018-10-01T23:14:09.679Z,8.75
2018-10-01T23:16:38.077Z,8.83
2018-10-01T23:19:06.474Z,8.91
2018-10-01T23:21:35.204Z,8.83
2018-10-01T23:24:03.790Z,8.87
2018-10-01T23:26:32.375Z,8.87
2018-10-01T23:29:00.750Z,8.83
2018-10-01T23:31:29.156Z,8.82
2018-10-01T23:33:57.494Z,8.83
2018-10-01T23:36:25.786Z,8.89
2018-10-01T23:38:54.166Z,8.89
2018-10-01T23:41:22.592Z,8.91
2018-10-01T23:43:51.102Z,8.92
2018-10-01T23:46:20.241Z,8.92
2018-10-01T23:48:48.604Z,8.98
2018-10-01T23:51:17.046Z,8.93
2018-10-01T23:53:45.501Z,8.87
2018-10-01T23:56:13.851Z,8.88
2018-10-01T23:58:42.246Z,8.82
